createdAt,value
2023-04-18T00:02:23.393Z,10.92
2023-04-18T00:04:51.751Z,10.94
2023-04-18T00:07:19.972Z,10.96
2023-04-18T00:09:47.918Z,11.02
2023-04-18T00:12:16.196Z,11.03
2023-04-18T00:14:44.406Z,11.01
2023-04-18T00:17:13.590Z,10.97
2023-04-18T00:19:43.391Z,10.92
2023-04-18T00:23:13.307Z,10.89
2023-04-18T00:26:21.766Z,10.89
2023-04-18T00:29:09.826Z,10.90
2023-04-18T00:31:39.711Z,10.91
2023-04-18T00:34:07.703Z,10.91
2023-04-18T00:36:35.921Z,10.92
2023-04-18T00:39:04.131Z,10.92
2023-04-18T00:41:32.712Z,10.96
2023-04-18T00:44:01.148Z,10.94
2023-04-18T00:46:29.270Z,10.92
2023-04-18T00:48:57.475Z,10.93
2023-04-18T00:51:25.747Z,10.92
2023-04-18T00:53:54.130Z,10.93
2023-04-18T00:56:23.839Z,10.94
2023-04-18T00:58:51.995Z,10.94
2023-04-18T01:01:20.078Z,10.96
2023-04-18T01:03:49.479Z,10.96
2023-04-18T01:06:18.335Z,10.96
2023-04-18T01:08:46.506Z,10.96
2023-04-18T01:11:34.388Z,10.92
2023-04-18T01:14:05.546Z,10.88
2023-04-18T01:16:40.105Z,10.86
2023-04-18T01:19:08.519Z,10.84
2023-04-18T01:21:37.505Z,10.87
2023-04-18T01:24:12.555Z,10.89
2023-04-18T01:26:44.227Z,10.88
2023-04-18T01:29:12.439Z,10.86
2023-04-18T01:31:46.138Z,10.85
2023-04-18T01:34:18.173Z,10.81
2023-04-18T01:36:46.803Z,10.83
2023-04-18T01:39:15.552Z,10.88
2023-04-18T01:41:44.538Z,10.93
2023-04-18T01:44:12.842Z,10.94
2023-04-18T01:46:41.277Z,10.92
2023-04-18T01:49:10.034Z,10.91
2023-04-18T01:51:39.021Z,10.91
2023-04-18T01:54:15.788Z,10.89
2023-04-18T01:56:44.010Z,10.85
2023-04-18T01:59:12.096Z,10.82
2023-04-18T02:01:40.677Z,10.80
2023-04-18T02:04:09.004Z,10.78
2023-04-18T02:06:37.205Z,10.78
2023-04-18T02:09:05.355Z,10.80
2023-04-18T02:11:34.394Z,10.81
2023-04-18T02:14:05.153Z,10.80
2023-04-18T02:16:35.474Z,10.79
2023-04-18T02:19:12.533Z,10.79
2023-04-18T02:21:44.918Z,10.79
2023-04-18T02:24:13.806Z,10.79
2023-04-18T02:26:44.435Z,10.81
2023-04-18T02:29:12.720Z,10.82
2023-04-18T02:31:41.761Z,10.82
2023-04-18T02:34:10.735Z,10.80
2023-04-18T02:36:39.032Z,10.82
2023-04-18T02:39:07.131Z,10.85
2023-04-18T02:41:37.642Z,10.84
2023-04-18T02:44:07.172Z,10.84
2023-04-18T02:46:37.461Z,10.80
2023-04-18T02:49:07.540Z,10.79
2023-04-18T02:51:36.200Z,10.79
2023-04-18T02:54:05.183Z,10.78
2023-04-18T02:56:44.282Z,10.76
2023-04-18T02:59:27.835Z,10.75
2023-04-18T03:02:47.974Z,10.74
2023-04-18T03:05:47.055Z,10.72
2023-04-18T03:08:16.295Z,10.70
2023-04-18T03:10:44.324Z,10.71
2023-04-18T03:13:12.399Z,10.74
2023-04-18T03:16:01.203Z,10.76
2023-04-18T03:19:06.040Z,10.79
2023-04-18T03:21:36.213Z,10.81
2023-04-18T03:24:25.236Z,10.81
2023-04-18T03:26:54.153Z,10.83
2023-04-18T03:29:24.507Z,10.86
2023-04-18T03:31:52.955Z,10.90
2023-04-18T03:34:21.851Z,10.94
2023-04-18T03:36:50.255Z,10.97
2023-04-18T03:39:18.761Z,10.95
2023-04-18T03:41:47.236Z,10.95
2023-04-18T03:44:15.940Z,10.93
2023-04-18T03:46:44.508Z,10.89
2023-04-18T03:49:13.363Z,10.86
2023-04-18T03:51:49.710Z,10.86
2023-04-18T03:54:26.245Z,10.87
2023-04-18T03:56:55.937Z,10.86
2023-04-18T03:59:24.216Z,10.86
2023-04-18T04:01:52.313Z,10.86
2023-04-18T04:04:20.560Z,10.86
2023-04-18T04:07:09.227Z,10.84
2023-04-18T04:09:37.597Z,10.83
2023-04-18T04:12:07.368Z,10.82
2023-04-18T04:14:35.603Z,10.83
2023-04-18T04:17:04.947Z,10.84
2023-04-18T04:19:34.625Z,10.83
2023-04-18T04:22:09.301Z,10.84
2023-04-18T04:24:39.301Z,10.86
2023-04-18T04:27:08.205Z,10.89
2023-04-18T04:29:39.258Z,10.95
2023-04-18T04:32:08.313Z,10.96
2023-04-18T04:34:41.386Z,10.98
2023-04-18T04:37:14.143Z,10.98
2023-04-18T04:39:53.737Z,10.95
2023-04-18T04:42:41.218Z,10.95
2023-04-18T04:45:14.035Z,10.98
2023-04-18T04:47:42.079Z,10.98
2023-04-18T04:50:14.848Z,10.97
2023-04-18T04:52:43.419Z,11.00
2023-04-18T04:55:11.755Z,11.06
2023-04-18T04:57:45.055Z,11.11
2023-04-18T05:00:40.085Z,11.11
2023-04-18T05:03:09.918Z,11.10
2023-04-18T05:05:38.216Z,11.11
2023-04-18T05:08:26.352Z,11.13
2023-04-18T05:10:55.406Z,11.17
2023-04-18T05:13:23.368Z,11.22
2023-04-18T05:15:53.137Z,11.25
2023-04-18T05:18:21.957Z,11.28
2023-04-18T05:20:50.537Z,11.34
2023-04-18T05:23:18.631Z,11.39
2023-04-18T05:25:46.804Z,11.44
2023-04-18T05:28:55.212Z,11.52
2023-04-18T05:31:23.371Z,11.59
2023-04-18T05:33:51.365Z,11.64
2023-04-18T05:36:19.563Z,11.67
2023-04-18T05:38:55.737Z,11.68
2023-04-18T05:41:23.664Z,11.69
2023-04-18T05:44:04.250Z,11.74
2023-04-18T05:46:33.678Z,11.81
2023-04-18T05:49:02.498Z,11.84
2023-04-18T05:51:31.348Z,11.96
2023-04-18T05:53:59.720Z,12.07
2023-04-18T05:56:27.733Z,12.11
2023-04-18T05:58:55.987Z,12.12
2023-04-18T06:01:24.019Z,12.10
2023-04-18T06:03:52.022Z,12.11
2023-04-18T06:06:20.503Z,12.18
2023-04-18T06:08:48.663Z,12.21
2023-04-18T06:11:16.756Z,12.25
2023-04-18T06:13:44.690Z,12.24
2023-04-18T06:16:13.353Z,12.25
2023-04-18T06:18:41.450Z,12.26
2023-04-18T06:21:09.630Z,12.30
2023-04-18T06:23:38.619Z,12.38
2023-04-18T06:26:07.488Z,12.52
2023-04-18T06:29:14.000Z,12.69
2023-04-18T06:31:42.315Z,12.83
2023-04-18T06:34:10.397Z,12.91
2023-04-18T06:36:38.529Z,13.00
2023-04-18T06:39:06.992Z,13.09
2023-04-18T06:41:35.300Z,13.16
2023-04-18T06:44:04.638Z,13.27
2023-04-18T06:46:33.356Z,13.30
2023-04-18T06:49:01.616Z,13.34
2023-04-18T06:51:29.583Z,13.38
2023-04-18T06:53:58.209Z,13.42
2023-04-18T06:56:26.457Z,13.37
2023-04-18T06:59:14.668Z,13.37
2023-04-18T07:01:51.237Z,13.35
2023-04-18T07:04:19.797Z,13.44
2023-04-18T07:06:50.570Z,13.65
2023-04-18T07:09:18.846Z,13.97
2023-04-18T07:11:47.003Z,14.28
2023-04-18T07:14:15.258Z,14.59
2023-04-18T07:16:43.553Z,14.77
2023-04-18T07:19:12.000Z,14.91
2023-04-18T07:21:40.718Z,14.87
2023-04-18T07:24:09.056Z,14.82
2023-04-18T07:26:38.249Z,14.79
2023-04-18T07:29:06.524Z,14.86
2023-04-18T07:31:34.541Z,14.93
2023-04-18T07:34:02.634Z,15.03
2023-04-18T07:36:31.478Z,15.25
2023-04-18T07:38:59.815Z,15.54
2023-04-18T07:41:27.886Z,15.75
2023-04-18T07:43:56.514Z,15.92
2023-04-18T07:46:24.595Z,16.12
2023-04-18T07:48:52.923Z,16.28
2023-04-18T07:51:25.489Z,16.40
2023-04-18T07:53:53.427Z,16.52
2023-04-18T07:56:21.732Z,16.56
2023-04-18T07:59:02.409Z,16.58
2023-04-18T08:01:31.134Z,16.68
2023-04-18T08:04:02.037Z,16.77
2023-04-18T08:06:30.745Z,16.82
2023-04-18T08:08:59.117Z,16.87
2023-04-18T08:11:27.167Z,16.90
2023-04-18T08:13:55.408Z,17.02
2023-04-18T08:16:23.738Z,17.28
2023-04-18T08:18:52.036Z,17.45
2023-04-18T08:21:20.784Z,17.58
2023-04-18T08:23:49.238Z,17.76
2023-04-18T08:26:17.279Z,17.87
2023-04-18T08:28:46.581Z,17.86
2023-04-18T08:31:15.461Z,17.91
2023-04-18T08:33:43.529Z,17.99
2023-04-18T08:36:12.632Z,17.87
2023-04-18T08:38:40.677Z,17.83
2023-04-18T08:41:08.802Z,17.93
2023-04-18T08:43:37.831Z,18.07
2023-04-18T08:46:06.899Z,18.09
2023-04-18T08:48:34.899Z,17.96
2023-04-18T08:51:03.151Z,17.93
2023-04-18T08:53:33.939Z,17.88
2023-04-18T08:56:05.651Z,17.85
2023-04-18T08:58:34.989Z,17.96
2023-04-18T09:01:03.332Z,18.19
2023-04-18T09:03:43.392Z,18.52
2023-04-18T09:06:16.508Z,18.74
2023-04-18T09:09:04.010Z,18.94
2023-04-18T09:11:34.460Z,19.03
2023-04-18T09:14:24.402Z,18.94
2023-04-18T09:16:53.481Z,18.58
2023-04-18T09:19:21.913Z,18.19
2023-04-18T09:21:59.552Z,17.97
2023-04-18T09:24:34.443Z,17.99
2023-04-18T09:27:04.185Z,18.04
2023-04-18T09:29:50.025Z,17.96
2023-04-18T09:32:30.818Z,17.89
2023-04-18T09:35:04.014Z,17.93
2023-04-18T09:37:32.785Z,18.00
2023-04-18T09:40:00.881Z,18.12
2023-04-18T09:42:36.242Z,18.45
2023-04-18T09:45:06.624Z,18.89
2023-04-18T09:47:36.717Z,19.28
2023-04-18T09:50:07.543Z,19.55
2023-04-18T09:52:38.237Z,19.93
2023-04-18T09:55:09.483Z,20.28
2023-04-18T09:57:41.780Z,20.61
2023-04-18T10:00:24.171Z,20.75
2023-04-18T10:03:05.178Z,20.73
2023-04-18T10:05:35.738Z,20.80
2023-04-18T10:08:04.494Z,21.05
2023-04-18T10:10:33.231Z,21.26
2023-04-18T10:13:06.557Z,21.31
2023-04-18T10:15:35.009Z,21.31
2023-04-18T10:18:09.278Z,21.23
2023-04-18T10:20:37.263Z,21.24
2023-04-18T10:23:36.364Z,21.28
2023-04-18T10:26:11.268Z,21.11
2023-04-18T10:28:58.890Z,20.99
2023-04-18T10:31:28.757Z,21.06
2023-04-18T10:34:05.316Z,21.12
2023-04-18T10:36:33.797Z,21.14
2023-04-18T10:39:20.834Z,21.29
2023-04-18T10:41:51.171Z,21.51
2023-04-18T10:44:22.732Z,21.71
2023-04-18T10:46:51.220Z,21.84
2023-04-18T10:49:30.309Z,21.89
2023-04-18T10:52:02.433Z,21.85
2023-04-18T10:54:41.072Z,21.84
2023-04-18T10:57:10.266Z,21.70
2023-04-18T10:59:42.598Z,21.46
2023-04-18T11:02:30.180Z,21.21
2023-04-18T11:05:00.879Z,21.00
2023-04-18T11:07:46.153Z,20.92
2023-04-18T11:10:18.822Z,20.89
2023-04-18T11:12:47.489Z,20.86
2023-04-18T11:15:24.168Z,20.85
2023-04-18T11:17:59.943Z,21.05
2023-04-18T11:20:29.339Z,21.16
2023-04-18T11:22:59.474Z,20.96
2023-04-18T11:25:34.777Z,20.85
2023-04-18T11:28:04.957Z,21.01
2023-04-18T11:30:38.571Z,21.27
2023-04-18T11:33:12.027Z,21.42
2023-04-18T11:35:49.385Z,21.49
2023-04-18T11:38:18.670Z,21.60
2023-04-18T11:40:50.686Z,21.66
2023-04-18T11:43:25.625Z,21.73
2023-04-18T11:45:56.324Z,21.74
2023-04-18T11:48:25.012Z,21.78
2023-04-18T11:50:53.084Z,22.10
2023-04-18T11:53:38.101Z,22.49
2023-04-18T11:56:07.040Z,22.68
2023-04-18T11:58:36.511Z,22.82
2023-04-18T12:01:25.369Z,23.00
2023-04-18T12:04:01.418Z,23.28
2023-04-18T12:06:46.632Z,23.40
2023-04-18T12:09:15.908Z,23.38
2023-04-18T12:11:44.596Z,23.35
2023-04-18T12:14:22.297Z,23.26
2023-04-18T12:16:51.331Z,23.04
2023-04-18T12:19:20.855Z,22.70
2023-04-18T12:22:06.848Z,22.42
2023-04-18T12:24:36.207Z,22.12
2023-04-18T12:27:04.495Z,21.94
2023-04-18T12:29:40.902Z,21.88
2023-04-18T12:32:08.910Z,21.88
2023-04-18T12:34:36.938Z,21.85
2023-04-18T12:37:05.140Z,21.81
2023-04-18T12:39:33.265Z,21.80
2023-04-18T12:42:02.365Z,21.67
2023-04-18T12:44:30.619Z,21.45
2023-04-18T12:46:58.839Z,21.32
2023-04-18T12:49:26.979Z,21.31
2023-04-18T12:51:54.985Z,21.21
2023-04-18T12:54:22.953Z,21.07
2023-04-18T12:56:50.958Z,21.07
2023-04-18T12:59:18.854Z,21.09
2023-04-18T13:01:46.888Z,21.09
2023-04-18T13:04:15.401Z,20.98
2023-04-18T13:06:43.678Z,20.87
2023-04-18T13:09:12.142Z,20.77
2023-04-18T13:11:40.340Z,20.60
2023-04-18T13:14:08.438Z,20.46
2023-04-18T13:16:36.612Z,20.25
2023-04-18T13:19:04.599Z,20.03
2023-04-18T13:21:32.543Z,19.80
2023-04-18T13:24:01.126Z,19.66
2023-04-18T13:26:29.267Z,19.64
2023-04-18T13:28:57.449Z,19.75
2023-04-18T13:31:25.790Z,19.92
2023-04-18T13:33:53.742Z,20.13
2023-04-18T13:36:21.760Z,20.35
2023-04-18T13:38:51.514Z,20.43
2023-04-18T13:41:19.548Z,20.41
2023-04-18T13:43:47.521Z,20.29
2023-04-18T13:46:15.562Z,20.02
2023-04-18T13:48:43.557Z,19.90
2023-04-18T13:51:11.529Z,19.90
2023-04-18T13:53:39.550Z,19.92
2023-04-18T13:56:07.964Z,19.91
2023-04-18T13:58:36.292Z,19.81
2023-04-18T14:01:04.396Z,19.74
2023-04-18T14:03:34.160Z,19.79
2023-04-18T14:06:03.883Z,19.76
2023-04-18T14:08:31.975Z,19.67
2023-04-18T14:10:59.957Z,19.59
2023-04-18T14:13:28.198Z,19.53
2023-04-18T14:15:56.241Z,19.46
2023-04-18T14:18:24.772Z,19.39
2023-04-18T14:20:52.796Z,19.39
2023-04-18T14:23:22.925Z,19.43
2023-04-18T14:25:51.224Z,19.46
2023-04-18T14:28:21.653Z,19.36
2023-04-18T14:30:49.714Z,19.22
2023-04-18T14:33:18.504Z,19.06
2023-04-18T14:35:46.502Z,19.01
2023-04-18T14:38:14.518Z,19.03
2023-04-18T14:40:42.518Z,19.00
2023-04-18T14:43:10.431Z,18.93
2023-04-18T14:45:38.357Z,18.86
2023-04-18T14:48:08.134Z,18.87
2023-04-18T14:50:38.697Z,18.89
2023-04-18T14:53:07.685Z,18.92
2023-04-18T14:55:36.106Z,18.94
2023-04-18T14:58:04.399Z,18.88
2023-04-18T15:00:33.273Z,18.76
2023-04-18T15:03:01.538Z,18.62
2023-04-18T15:05:29.713Z,18.48
2023-04-18T15:07:58.367Z,18.32
2023-04-18T15:10:26.845Z,18.25
2023-04-18T15:12:54.834Z,18.23
2023-04-18T15:15:22.903Z,18.17
2023-04-18T15:17:51.319Z,18.12
2023-04-18T15:20:22.460Z,18.04
2023-04-18T15:22:51.922Z,17.99
2023-04-18T15:25:21.134Z,17.99
2023-04-18T15:27:49.317Z,18.01
2023-04-18T15:30:17.450Z,18.01
2023-04-18T15:32:45.702Z,18.00
2023-04-18T15:35:14.337Z,17.97
2023-04-18T15:37:42.325Z,18.00
2023-04-18T15:40:11.512Z,18.02
2023-04-18T15:42:39.511Z,18.04
2023-04-18T15:45:08.131Z,18.05
2023-04-18T15:47:36.335Z,18.06
2023-04-18T15:50:04.922Z,18.02
2023-04-18T15:52:33.166Z,17.93
2023-04-18T15:55:01.443Z,17.84
2023-04-18T15:57:29.891Z,17.76
2023-04-18T15:59:59.652Z,17.68
2023-04-18T16:02:28.003Z,17.63
2023-04-18T16:04:56.202Z,17.57
2023-04-18T16:07:24.164Z,17.56
2023-04-18T16:09:52.302Z,17.54
2023-04-18T16:12:20.348Z,17.49
2023-04-18T16:14:48.327Z,17.39
2023-04-18T16:17:16.384Z,17.32
2023-04-18T16:19:44.424Z,17.24
2023-04-18T16:22:12.617Z,17.05
2023-04-18T16:24:42.166Z,16.85
2023-04-18T16:27:10.540Z,16.68
2023-04-18T16:29:38.794Z,16.55
2023-04-18T16:32:06.925Z,16.48
2023-04-18T16:34:35.051Z,16.40
2023-04-18T16:37:03.228Z,16.32
2023-04-18T16:39:31.351Z,16.24
2023-04-18T16:41:59.501Z,16.13
2023-04-18T16:44:27.681Z,16.06
2023-04-18T16:46:55.705Z,16.01
2023-04-18T16:49:23.840Z,15.99
2023-04-18T16:51:52.165Z,15.92
2023-04-18T16:54:20.317Z,15.91
2023-04-18T16:56:50.790Z,15.86
2023-04-18T16:59:18.709Z,15.82
2023-04-18T17:01:47.003Z,15.77
2023-04-18T17:04:17.587Z,15.71
2023-04-18T17:06:46.690Z,15.64
2023-04-18T17:09:15.186Z,15.54
2023-04-18T17:11:43.658Z,15.47
2023-04-18T17:14:11.988Z,15.43
2023-04-18T17:16:42.120Z,15.41
2023-04-18T17:19:10.545Z,15.37
2023-04-18T17:21:38.651Z,15.33
2023-04-18T17:24:07.423Z,15.29
2023-04-18T17:26:37.164Z,15.23
2023-04-18T17:29:05.445Z,15.18
2023-04-18T17:31:34.097Z,15.12
2023-04-18T17:34:03.662Z,15.07
2023-04-18T17:36:31.778Z,15.06
2023-04-18T17:39:06.807Z,15.05
2023-04-18T17:41:37.896Z,15.05
2023-04-18T17:44:07.730Z,15.03
2023-04-18T17:46:36.198Z,15.01
2023-04-18T17:49:04.891Z,14.97
2023-04-18T17:51:33.027Z,14.94
2023-04-18T17:54:01.043Z,14.90
2023-04-18T17:56:30.557Z,14.86
2023-04-18T17:58:58.600Z,14.83
2023-04-18T18:01:30.273Z,14.79
2023-04-18T18:03:58.923Z,14.71
2023-04-18T18:06:29.873Z,14.64
2023-04-18T18:08:57.774Z,14.59
2023-04-18T18:11:28.330Z,14.55
2023-04-18T18:13:58.250Z,14.50
2023-04-18T18:16:26.586Z,14.43
2023-04-18T18:18:54.780Z,14.36
2023-04-18T18:21:23.022Z,14.28
2023-04-18T18:23:51.038Z,14.23
2023-04-18T18:26:19.082Z,14.20
2023-04-18T18:28:47.033Z,14.14
2023-04-18T18:31:14.948Z,14.09
2023-04-18T18:33:43.057Z,14.03
2023-04-18T18:36:11.194Z,14.00
2023-04-18T18:38:39.075Z,13.98
2023-04-18T18:41:08.003Z,13.95
2023-04-18T18:43:36.130Z,13.89
2023-04-18T18:46:04.206Z,13.89
2023-04-18T18:48:32.977Z,13.86
2023-04-18T18:51:01.521Z,13.83
2023-04-18T18:53:29.647Z,13.81
2023-04-18T18:55:57.604Z,13.76
2023-04-18T18:58:26.094Z,13.74
2023-04-18T19:00:56.197Z,13.73
2023-04-18T19:03:25.335Z,13.71
2023-04-18T19:05:53.460Z,13.69
2023-04-18T19:08:21.393Z,13.66
2023-04-18T19:10:50.684Z,13.64
2023-04-18T19:13:22.926Z,13.58
2023-04-18T19:15:51.317Z,13.56
2023-04-18T19:18:21.341Z,13.56
2023-04-18T19:20:50.453Z,13.56
2023-04-18T19:23:19.524Z,13.57
2023-04-18T19:25:47.448Z,13.59
2023-04-18T19:28:18.307Z,13.64
2023-04-18T19:30:46.599Z,13.68
2023-04-18T19:33:14.766Z,13.71
2023-04-18T19:35:44.421Z,13.76
2023-04-18T19:38:12.518Z,13.83
2023-04-18T19:40:40.526Z,13.82
2023-04-18T19:43:08.821Z,13.91
2023-04-18T19:45:37.209Z,13.98
2023-04-18T19:48:05.877Z,14.02
2023-04-18T19:50:33.859Z,14.06
2023-04-18T19:53:01.816Z,14.11
2023-04-18T19:55:31.689Z,14.14
2023-04-18T19:58:00.014Z,14.16
2023-04-18T20:00:28.569Z,14.18
2023-04-18T20:02:58.836Z,14.20
2023-04-18T20:05:27.363Z,14.19
2023-04-18T20:07:55.359Z,14.18
2023-04-18T20:10:23.382Z,14.19
2023-04-18T20:12:51.421Z,14.22
2023-04-18T20:15:19.414Z,14.25
2023-04-18T20:17:47.504Z,14.27
2023-04-18T20:20:15.597Z,14.28
2023-04-18T20:22:44.829Z,14.30
2023-04-18T20:25:12.824Z,14.30
2023-04-18T20:27:40.918Z,14.28
2023-04-18T20:30:09.055Z,14.28
2023-04-18T20:32:37.039Z,14.27
2023-04-18T20:35:05.653Z,14.25
2023-04-18T20:37:36.676Z,14.20
2023-04-18T20:40:07.982Z,14.14
2023-04-18T20:42:36.801Z,14.10
2023-04-18T20:45:22.927Z,14.14
2023-04-18T20:47:51.050Z,14.15
2023-04-18T20:50:20.564Z,14.16
2023-04-18T20:52:48.571Z,14.15
2023-04-18T20:55:18.317Z,14.14
2023-04-18T20:57:46.268Z,14.14
2023-04-18T21:00:14.512Z,14.15
2023-04-18T21:02:43.688Z,14.17
2023-04-18T21:05:12.216Z,14.14
2023-04-18T21:07:40.369Z,14.10
2023-04-18T21:10:08.610Z,14.09
2023-04-18T21:12:36.699Z,14.07
2023-04-18T21:15:05.591Z,14.06
2023-04-18T21:17:33.721Z,14.07
2023-04-18T21:20:02.079Z,14.08
2023-04-18T21:22:30.003Z,14.09
2023-04-18T21:24:57.940Z,14.11
2023-04-18T21:27:26.213Z,14.09
2023-04-18T21:29:54.113Z,14.08
2023-04-18T21:32:22.082Z,14.05
2023-04-18T21:34:50.081Z,14.02
2023-04-18T21:37:18.111Z,14.03
2023-04-18T21:39:46.214Z,14.02
2023-04-18T21:42:14.200Z,14.06
2023-04-18T21:44:42.121Z,14.07
2023-04-18T21:47:10.227Z,14.08
2023-04-18T21:49:38.226Z,14.10
2023-04-18T21:52:06.231Z,14.08
2023-04-18T21:54:34.243Z,14.07
2023-04-18T21:57:02.823Z,14.06
2023-04-18T21:59:31.109Z,14.04
2023-04-18T22:01:59.219Z,14.00
2023-04-18T22:04:27.798Z,13.94
2023-04-18T22:06:59.956Z,13.88
2023-04-18T22:09:28.626Z,13.87
2023-04-18T22:11:57.123Z,13.82
2023-04-18T22:14:26.079Z,13.85
2023-04-18T22:16:54.796Z,13.86
2023-04-18T22:19:22.896Z,13.86
2023-04-18T22:21:51.503Z,13.88
2023-04-18T22:24:19.751Z,13.89
2023-04-18T22:26:48.243Z,13.90
2023-04-18T22:29:16.303Z,13.93
2023-04-18T22:31:44.522Z,13.96
2023-04-18T22:34:12.807Z,13.96
2023-04-18T22:36:42.874Z,13.98
2023-04-18T22:39:12.354Z,13.98
2023-04-18T22:41:40.554Z,13.99
2023-04-18T22:44:08.471Z,13.98
2023-04-18T22:46:38.638Z,13.96
2023-04-18T22:49:07.441Z,13.96
2023-04-18T22:51:35.479Z,13.97
2023-04-18T22:54:03.509Z,13.96
2023-04-18T22:56:31.462Z,13.97
2023-04-18T22:58:59.463Z,13.97
2023-04-18T23:01:27.478Z,13.96
2023-04-18T23:03:56.020Z,13.95
2023-04-18T23:06:24.140Z,13.95
2023-04-18T23:08:52.212Z,13.94
2023-04-18T23:11:20.098Z,13.91
2023-04-18T23:13:48.002Z,13.87
2023-04-18T23:16:16.088Z,13.83
2023-04-18T23:18:44.382Z,13.82
2023-04-18T23:21:12.552Z,13.81
2023-04-18T23:23:40.562Z,13.80
2023-04-18T23:26:15.060Z,13.77
2023-04-18T23:28:43.203Z,13.73
2023-04-18T23:31:11.342Z,13.71
2023-04-18T23:33:39.302Z,13.70
2023-04-18T23:36:07.838Z,13.66
2023-04-18T23:38:44.031Z,13.64
2023-04-18T23:41:11.951Z,13.61
2023-04-18T23:43:39.863Z,13.59
2023-04-18T23:46:07.835Z,13.56
2023-04-18T23:48:36.058Z,13.55
2023-04-18T23:51:04.071Z,13.53
2023-04-18T23:53:32.246Z,13.50
2023-04-18T23:56:00.146Z,13.44
2023-04-18T23:58:28.267Z,13.39
